createdAt,value
2023-05-01T00:01:31.877Z,102007.22
2023-05-01T00:03:58.802Z,102006.47
2023-05-01T00:06:26.300Z,102009.31
2023-05-01T00:08:52.896Z,102006.75
2023-05-01T00:11:19.641Z,102001.53
2023-05-01T00:13:46.399Z,101998.09
2023-05-01T00:16:13.564Z,101990.13
2023-05-01T00:18:40.185Z,101989.31
2023-05-01T00:21:06.642Z,101990.38
2023-05-01T00:23:33.253Z,101987.81
2023-05-01T00:25:59.801Z,101976.28
2023-05-01T00:28:26.368Z,101977.31
2023-05-01T00:30:52.999Z,101970.28
2023-05-01T00:33:19.581Z,101974.03
2023-05-01T00:35:49.916Z,101973.25
2023-05-01T00:38:16.419Z,101967.06
2023-05-01T00:40:45.974Z,101958.22
2023-05-01T00:43:13.024Z,101958.34
2023-05-01T00:45:43.224Z,101958.44
2023-05-01T00:48:10.259Z,101960.38
2023-05-01T00:50:37.343Z,101949.75
2023-05-01T00:53:04.272Z,101952.59
2023-05-01T00:55:31.649Z,101948.25
2023-05-01T00:57:59.207Z,101943.00
2023-05-01T01:00:26.150Z,101939.47
2023-05-01T01:02:52.808Z,101932.47
2023-05-01T01:05:22.102Z,101931.69
2023-05-01T01:07:56.611Z,101926.41
2023-05-01T01:11:08.607Z,101919.31
2023-05-01T01:13:56.043Z,101913.25
2023-05-01T01:16:41.756Z,101919.72
2023-05-01T01:19:25.295Z,101916.19
2023-05-01T01:21:58.815Z,101910.13
2023-05-01T01:24:59.151Z,101904.84
2023-05-01T01:27:37.914Z,101898.69
2023-05-01T01:30:36.909Z,101900.63
2023-05-01T01:33:25.543Z,101898.03
2023-05-01T01:35:57.723Z,101894.59
2023-05-01T01:38:37.764Z,101893.91
2023-05-01T01:41:15.228Z,101887.69
2023-05-01T01:43:47.395Z,101883.38
2023-05-01T01:46:17.718Z,101872.69
2023-05-01T01:48:49.121Z,101872.81
2023-05-01T01:51:19.228Z,101865.75
2023-05-01T01:53:50.465Z,101861.38
2023-05-01T01:56:19.374Z,101865.03
2023-05-01T01:58:47.345Z,101849.88
2023-05-01T02:01:16.197Z,101852.69
2023-05-01T02:03:46.046Z,101852.72
2023-05-01T02:06:14.552Z,101844.78
2023-05-01T02:08:42.643Z,101838.59
2023-05-01T02:11:11.323Z,101836.94
2023-05-01T02:13:39.139Z,101834.28
2023-05-01T02:16:07.247Z,101829.88
2023-05-01T02:18:34.668Z,101824.63
2023-05-01T02:21:03.388Z,101823.81
2023-05-01T02:23:31.098Z,101830.13
2023-05-01T02:26:00.738Z,101826.59
2023-05-01T02:28:29.895Z,101815.94
2023-05-01T02:30:57.329Z,101817.84
2023-05-01T02:33:24.039Z,101814.31
2023-05-01T02:35:50.584Z,101817.06
2023-05-01T02:38:17.520Z,101816.25
2023-05-01T02:40:47.167Z,101810.94
2023-05-01T02:43:18.487Z,101802.97
2023-05-01T02:45:46.118Z,101802.13
2023-05-01T02:48:17.654Z,101804.03
2023-05-01T02:50:49.273Z,101800.50
2023-05-01T02:53:16.771Z,101805.03
2023-05-01T02:55:43.603Z,101797.91
2023-05-01T02:58:15.692Z,101804.25
2023-05-01T03:00:42.567Z,101789.97
2023-05-01T03:03:09.121Z,101790.97
2023-05-01T03:05:35.708Z,101782.94
2023-05-01T03:08:02.216Z,101779.44
2023-05-01T03:10:28.775Z,101785.75
2023-05-01T03:12:55.646Z,101776.88
2023-05-01T03:15:22.248Z,101771.53
2023-05-01T03:17:48.847Z,101772.47
2023-05-01T03:20:16.157Z,101764.47
2023-05-01T03:22:42.704Z,101767.16
2023-05-01T03:25:09.831Z,101766.31
2023-05-01T03:27:36.321Z,101763.69
2023-05-01T03:30:04.534Z,101759.25
2023-05-01T03:32:31.033Z,101759.25
2023-05-01T03:34:57.499Z,101752.19
2023-05-01T03:37:24.818Z,101750.41
2023-05-01T03:39:51.955Z,101748.66
2023-05-01T03:42:18.643Z,101746.03
2023-05-01T03:44:45.693Z,101746.97
2023-05-01T03:47:12.280Z,101742.47
2023-05-01T03:49:38.768Z,101738.97
2023-05-01T03:52:06.492Z,101743.47
2023-05-01T03:54:33.080Z,101745.28
2023-05-01T03:57:00.588Z,101742.56
2023-05-01T03:59:27.161Z,101737.25
2023-05-01T04:01:53.820Z,101732.75
2023-05-01T04:04:20.485Z,101732.75
2023-05-01T04:06:49.698Z,101727.47
2023-05-01T04:09:16.333Z,101730.16
2023-05-01T04:11:42.823Z,101727.47
2023-05-01T04:14:09.371Z,101724.78
2023-05-01T04:27:12.450Z,101719.53
2023-05-01T04:29:40.468Z,101719.53
2023-05-01T04:32:17.268Z,101719.53
2023-05-01T04:34:46.670Z,101720.41
2023-05-01T04:37:41.256Z,101715.97
2023-05-01T04:40:10.581Z,101723.16
2023-05-01T04:42:38.053Z,101721.34
2023-05-01T04:45:05.066Z,101723.16
2023-05-01T04:47:31.702Z,101721.38
2023-05-01T04:49:58.532Z,101722.34
2023-05-01T04:52:25.731Z,101725.03
2023-05-01T04:55:36.053Z,101725.97
2023-05-01T04:58:12.917Z,101729.53
2023-05-01T05:00:42.153Z,101719.66
2023-05-01T05:06:25.888Z,101727.72
2023-05-01T05:08:55.142Z,101720.56
2023-05-01T05:11:21.726Z,101720.56
2023-05-01T05:13:48.269Z,101717.00
2023-05-01T05:16:15.378Z,101717.88
2023-05-01T05:18:42.149Z,101718.00
2023-05-01T06:13:33.585Z,101700.59
2023-05-01T06:19:28.320Z,101700.53
2023-05-01T06:22:04.789Z,101701.34
2023-05-01T06:24:44.929Z,101700.34
2023-05-01T06:27:40.979Z,101694.91
2023-05-01T06:30:37.950Z,101693.03
2023-05-01T06:33:44.604Z,101690.28
2023-05-01T06:36:56.909Z,101689.28
2023-05-01T06:40:10.920Z,101691.03
2023-05-01T06:42:48.783Z,101685.59
2023-05-01T06:46:35.501Z,101685.50
2023-05-01T06:49:04.146Z,101686.28
2023-05-01T06:51:35.966Z,101679.03
2023-05-01T06:54:12.845Z,101681.63
2023-05-01T06:56:44.778Z,101687.81
2023-05-01T06:59:59.661Z,101690.47
2023-05-01T07:05:55.854Z,101679.44
2023-05-01T07:09:06.853Z,101673.94
2023-05-01T07:11:52.814Z,101680.06
2023-05-01T07:17:34.765Z,101682.44
2023-05-01T07:20:22.438Z,101680.50
2023-05-01T07:23:13.252Z,101680.38
2023-05-01T07:25:55.470Z,101675.81
2023-05-01T07:29:08.971Z,101681.94
2023-05-01T07:32:31.580Z,101677.31
2023-05-01T07:34:57.526Z,101676.28
2023-05-01T07:37:27.841Z,101678.00
2023-05-01T07:39:57.087Z,101675.16
2023-05-01T07:42:26.319Z,101671.44
2023-05-01T07:45:26.482Z,101673.09
2023-05-01T07:48:05.290Z,101679.22
2023-05-01T07:51:14.407Z,101670.13
2023-05-01T07:54:24.954Z,101669.94
2023-05-01T07:56:51.676Z,101672.50
2023-05-01T08:05:44.722Z,101677.44
2023-05-01T08:08:23.003Z,101676.41
2023-05-01T08:11:31.408Z,101681.66
2023-05-01T08:14:00.017Z,101680.69
2023-05-01T08:16:31.360Z,101684.13
2023-05-01T08:19:08.761Z,101678.66
2023-05-01T08:21:49.397Z,101677.72
2023-05-01T08:24:40.923Z,101685.66
2023-05-01T08:27:09.723Z,101677.53
2023-05-01T08:30:02.122Z,101676.50
2023-05-01T08:32:33.700Z,101675.56
2023-05-01T08:35:00.357Z,101682.63
2023-05-01T08:37:35.226Z,101680.72
2023-05-01T08:40:21.022Z,101678.88
2023-05-01T08:42:50.784Z,101683.25
2023-05-01T08:45:38.390Z,101684.91
2023-05-01T08:48:20.369Z,101686.63
2023-05-01T08:50:59.993Z,101679.31
2023-05-01T08:56:23.546Z,101680.06
2023-05-01T08:58:54.202Z,101684.44
2023-05-01T09:01:22.415Z,101687.97
2023-05-01T09:03:51.246Z,101685.19
2023-05-01T09:06:18.611Z,101684.19
2023-05-01T09:08:45.309Z,101677.81
2023-05-01T09:11:12.249Z,101685.81
2023-05-01T09:13:39.010Z,101683.91
2023-05-01T09:16:06.606Z,101681.06
2023-05-01T09:18:34.671Z,101673.78
2023-05-01T09:21:01.990Z,101683.56
2023-05-01T09:23:28.869Z,101685.25
2023-05-01T09:25:57.197Z,101689.59
2023-05-01T09:28:41.748Z,101692.09
2023-05-01T09:31:23.636Z,101690.22
2023-05-01T09:33:58.093Z,101690.09
2023-05-01T09:36:26.878Z,101696.22
2023-05-01T09:38:55.480Z,101691.56
2023-05-01T09:41:31.063Z,101692.28
2023-05-01T09:44:11.901Z,101684.94
2023-05-01T09:47:21.407Z,101690.97
2023-05-01T09:49:48.387Z,101686.34
2023-05-01T09:52:15.773Z,101689.78
2023-05-01T09:54:43.733Z,101689.56
2023-05-01T09:57:12.682Z,101691.16
2023-05-01T09:59:50.386Z,101689.19
2023-05-01T10:02:31.954Z,101682.72
2023-05-01T10:04:59.971Z,101691.44
2023-05-01T10:07:30.166Z,101683.13
2023-05-01T10:09:59.209Z,101691.03
2023-05-01T10:12:34.489Z,101689.94
2023-05-01T10:15:23.312Z,101679.84
2023-05-01T10:17:52.355Z,101682.19
2023-05-01T10:20:19.208Z,101680.13
2023-05-01T10:22:46.739Z,101689.81
2023-05-01T10:25:14.253Z,101684.28
2023-05-01T10:27:41.582Z,101693.03
2023-05-01T10:30:10.106Z,101689.25
2023-05-01T10:32:38.108Z,101696.22
2023-05-01T10:35:11.560Z,101696.00
2023-05-01T10:38:02.097Z,101695.78
2023-05-01T10:40:41.042Z,101700.84
2023-05-01T10:43:18.307Z,101697.06
2023-05-01T10:45:51.132Z,101701.25
2023-05-01T10:48:45.029Z,101706.38
2023-05-01T10:51:27.744Z,101706.13
2023-05-01T10:54:26.847Z,101704.94
2023-05-01T10:57:03.474Z,101707.44
2023-05-01T11:00:17.318Z,101711.66
2023-05-01T11:02:47.052Z,101706.81
2023-05-01T11:05:38.019Z,101706.59
2023-05-01T11:18:18.280Z,101712.44
2023-05-01T11:26:52.312Z,101708.13
2023-05-01T11:29:21.657Z,101703.41
2023-05-01T11:32:19.195Z,101702.06
2023-05-01T11:34:59.739Z,101708.19
2023-05-01T11:37:57.152Z,101705.13
2023-05-01T11:40:33.531Z,101695.88
2023-05-01T11:43:19.611Z,101703.66
2023-05-01T11:46:06.161Z,101706.03
2023-05-01T11:48:37.552Z,101699.31
2023-05-01T12:00:31.070Z,101701.09
2023-05-01T12:03:06.413Z,101696.13
2023-05-01T12:05:39.262Z,101691.34
2023-05-01T12:08:18.457Z,101690.88
2023-05-01T12:10:47.293Z,101701.25
2023-05-01T12:13:15.300Z,101700.94
2023-05-01T12:15:50.814Z,101698.63
2023-05-01T12:18:36.364Z,101696.53
2023-05-01T12:28:32.161Z,101709.00
2023-05-01T12:31:05.395Z,101720.34
2023-05-01T12:34:06.040Z,101707.47
2023-05-01T12:36:56.606Z,101719.91
2023-05-01T12:39:43.514Z,101720.66
2023-05-01T12:49:41.408Z,101716.03
2023-05-01T12:51:35.640Z,101716.03
2023-05-01T12:51:46.562Z,101719.59
2023-05-01T12:54:39.539Z,101720.28
2023-05-01T12:57:17.167Z,101720.22
2023-05-01T13:00:36.689Z,101710.22
2023-05-01T13:13:29.882Z,101704.25
2023-05-01T13:16:16.298Z,101710.56
2023-05-01T13:18:52.808Z,101706.00
2023-05-01T13:21:21.529Z,101704.94
2023-05-01T13:23:56.434Z,101701.34
2023-05-01T13:26:33.598Z,101699.50
2023-05-01T13:29:01.827Z,101706.78
2023-05-01T13:31:29.159Z,101703.38
2023-05-01T13:37:23.168Z,101709.19
2023-05-01T13:39:51.801Z,101713.72
2023-05-01T13:42:24.860Z,101717.25
2023-05-01T14:16:56.240Z,101710.06
2023-05-01T14:19:22.838Z,101708.25
2023-05-01T14:21:49.391Z,101706.41
2023-05-01T14:24:18.195Z,101708.16
2023-05-01T14:26:48.072Z,101709.72
2023-05-01T14:29:27.306Z,101704.78
2023-05-01T14:32:05.335Z,101701.72
2023-05-01T14:34:33.461Z,101696.78
2023-05-01T14:37:00.177Z,101696.31
2023-05-01T14:39:27.259Z,101694.03
2023-05-01T14:41:56.443Z,101693.56
2023-05-01T14:44:28.420Z,101700.22
2023-05-01T14:46:55.318Z,101697.16
2023-05-01T14:49:26.529Z,101687.63
2023-05-01T14:51:54.119Z,101680.66
2023-05-01T14:54:21.135Z,101678.47
2023-05-01T14:56:48.926Z,101695.25
2023-05-01T14:59:16.438Z,101690.63
2023-05-01T15:01:44.068Z,101688.78
2023-05-01T15:04:11.770Z,101689.75
2023-05-01T15:06:38.628Z,101693.34
2023-05-01T15:09:07.801Z,101693.34
2023-05-01T15:11:34.405Z,101694.31
2023-05-01T15:14:01.207Z,101696.94
2023-05-01T15:16:27.872Z,101692.38
2023-05-01T15:18:54.757Z,101701.38
2023-05-01T15:21:25.431Z,101702.47
2023-05-01T15:28:02.334Z,101701.56
2023-05-01T15:30:29.057Z,101701.56
2023-05-01T15:32:55.846Z,101707.88
2023-05-01T15:35:23.674Z,101703.34
2023-05-01T15:37:50.602Z,101711.41
2023-05-01T15:40:17.309Z,101711.41
2023-05-01T15:42:45.430Z,101707.81
2023-05-01T15:45:11.985Z,101708.69
2023-05-01T15:47:38.717Z,101706.81
2023-05-01T15:50:09.603Z,101718.56
2023-05-01T15:52:36.217Z,101720.41
2023-05-01T15:55:02.855Z,101715.09
2023-05-01T15:57:34.643Z,101721.41
2023-05-01T16:11:46.434Z,101738.00
2023-05-01T16:14:38.755Z,101733.72
2023-05-01T16:17:56.804Z,101744.59
2023-05-01T16:28:42.090Z,101746.81
2023-05-01T16:55:31.832Z,101781.38
2023-05-01T16:58:07.905Z,101779.59
2023-05-01T17:01:05.743Z,101786.00
2023-05-01T17:10:01.267Z,101789.00
2023-05-01T17:12:55.543Z,101787.34
2023-05-01T17:16:05.379Z,101797.44
2023-05-01T17:19:57.696Z,101787.63
2023-05-01T18:06:30.031Z,101832.47
2023-05-01T18:12:36.134Z,101830.00
2023-05-01T19:28:34.426Z,101912.59
2023-05-01T19:32:00.333Z,101926.44
2023-05-01T19:52:02.388Z,101955.00
2023-05-01T19:58:56.847Z,101952.88
2023-05-01T20:01:29.879Z,101967.50
2023-05-01T20:04:52.732Z,101970.47
2023-05-01T20:07:48.669Z,101964.41
2023-05-01T20:22:08.226Z,101987.34
2023-05-01T20:29:50.144Z,101998.75
2023-05-01T20:45:02.638Z,102018.88
2023-05-01T20:54:12.742Z,102019.38
2023-05-01T20:57:13.001Z,102024.06
2023-05-01T21:00:17.619Z,102023.25
2023-05-01T21:03:46.044Z,102022.47
2023-05-01T21:07:59.288Z,102017.25
2023-05-01T21:13:02.775Z,102026.56
2023-05-01T21:16:06.615Z,102018.50
2023-05-01T21:21:49.119Z,102034.00
2023-05-01T21:24:35.407Z,102035.91
2023-05-01T21:27:31.355Z,102039.56
2023-05-01T21:30:33.635Z,102034.28
2023-05-01T21:36:45.833Z,102033.56
2023-05-01T21:39:12.492Z,102041.72
2023-05-01T21:41:40.608Z,102035.47
2023-05-01T21:44:07.313Z,102037.28
2023-05-01T21:46:35.985Z,102040.09
2023-05-01T21:49:02.608Z,102040.16
2023-05-01T21:51:29.235Z,102045.63
2023-05-01T21:53:55.891Z,102049.31
2023-05-01T21:56:23.426Z,102051.13
2023-05-01T21:58:50.309Z,102049.44
2023-05-01T22:01:17.237Z,102050.38
2023-05-01T22:03:45.458Z,102049.50
2023-05-01T22:06:12.154Z,102062.16
2023-05-01T22:08:38.650Z,102064.06
2023-05-01T22:11:06.509Z,102065.00
2023-05-01T22:13:34.422Z,102056.94
2023-05-01T22:16:00.897Z,102056.16
2023-05-01T22:18:27.821Z,102048.97
2023-05-01T22:20:54.397Z,102063.47
2023-05-01T22:23:21.594Z,102056.28
2023-05-01T22:25:48.104Z,102059.03
2023-05-01T22:28:15.947Z,102059.19
2023-05-01T22:30:44.451Z,102060.13
2023-05-01T22:33:10.984Z,102070.16
2023-05-01T22:35:37.474Z,102066.66
2023-05-01T22:38:04.007Z,102073.94
2023-05-01T22:40:30.851Z,102075.75
2023-05-01T22:42:57.352Z,102082.19
2023-05-01T22:45:23.853Z,102098.44
2023-05-01T22:47:50.354Z,102101.25
2023-05-01T22:50:17.033Z,102103.09
2023-05-01T22:52:45.874Z,102106.78
2023-05-01T22:55:13.121Z,102108.66
2023-05-01T22:57:39.662Z,102121.28
2023-05-01T23:00:07.957Z,102115.09
2023-05-01T23:02:34.630Z,102112.44
2023-05-01T23:05:01.281Z,102111.63
2023-05-01T23:07:27.761Z,102113.53
2023-05-01T23:09:56.002Z,102125.28
2023-05-01T23:12:23.387Z,102124.44
2023-05-01T23:14:49.868Z,102135.34
2023-05-01T23:17:16.343Z,102142.63
2023-05-01T23:19:46.030Z,102132.81
2023-05-01T23:22:13.141Z,102134.72
2023-05-01T23:24:48.408Z,102151.94
2023-05-01T23:27:18.067Z,102142.13
2023-05-01T23:29:54.040Z,102153.06
2023-05-01T23:32:31.331Z,102163.09
2023-05-01T23:35:03.730Z,102158.63
2023-05-01T23:37:30.248Z,102156.84
2023-05-01T23:39:58.605Z,102162.38
2023-05-01T23:42:25.813Z,102165.06
2023-05-01T23:44:52.427Z,102159.81
2023-05-01T23:47:19.369Z,102165.22
2023-05-01T23:49:46.669Z,102161.75
2023-05-01T23:52:13.319Z,102168.97
2023-05-01T23:54:39.761Z,102161.81
2023-05-01T23:57:06.208Z,102168.22
2023-05-01T23:59:32.652Z,102162.94
